Aimaru — JD3994 — position and weather

sailwx.info

Track history (hours):
 
Tides and Currents Weather Stations Pressure Air Temp Water Temp Dewpoint Dewpoint Depression Visibility Wind Speed Wind Dir Waves Ship Positions

Aimaru

Last reported at 2017-Dec-17 06:38 UTC. Time now 2017-Dec-17 12:11 UTC.
Position N 34°37' E 136°55'.

Length 65 m; draft 3.6 m.

Type: Tanker. MMSI: 431007966.

Date/timePositionNaut miles runAvg speedWind from/ knotsBaromVisibWave heightAir tempDewpointWater temp
2017-Dec-17 06:38N 34°37' E 136°55'211.8
2017-Dec-17 06:30N 34°38' E 136°53'611.9
2017-Dec-17 06:00N 34°42' E 136°49'612.2
2017-Dec-17 05:30N 34°48' E 136°46'612.3
2017-Dec-17 05:00N 34°54' E 136°46'611.1
2017-Dec-17 04:30N 34°59' E 136°49'5 9.9
2017-Dec-17 04:00N 35°03' E 136°52'1 0.9
2017-Dec-17 03:25N 35°04' E 136°52'0 0.0
2017-Dec-17 02:58N 35°04' E 136°52'0 0.0
2017-Dec-17 02:28N 35°04' E 136°52'0 0.0
2017-Dec-17 01:58N 35°04' E 136°52'1 1.3
2017-Dec-17 01:30N 35°05' E 136°52'0 0.5
2017-Dec-17 00:58N 35°05' E 136°52'0 0.0
2017-Dec-17 00:28N 35°05' E 136°52'0 0.0
2017-Dec-16 23:58N 35°05' E 136°52'4 7.9
2017-Dec-16 23:30N 35°01' E 136°51'611.8
2017-Dec-16 23:00N 34°56' E 136°47'611.4
2017-Dec-16 22:30N 34°51' E 136°47'610.9
2017-Dec-16 22:00N 34°45' E 136°48'22 8.8
2017-Dec-16 19:26N 34°33' E 137°12'60 9.7
2017-Dec-16 13:16N 34°36' E 138°25'310.2
2017-Dec-16 13:00N 34°36' E 138°28'5 9.4
2017-Dec-16 12:27N 34°37' E 138°34'4 9.2
2017-Dec-16 11:59N 34°36' E 138°39'5 8.3
2017-Dec-16 11:24N 34°36' E 138°45'3 7.9
2017-Dec-16 11:00N 34°35' E 138°49'4 7.4
2017-Dec-16 10:24N 34°35' E 138°54'4 8.0
2017-Dec-16 09:52N 34°38' E 138°59'4 9.7
2017-Dec-16 09:29N 34°40' E 139°02'2310.6
2017-Dec-16 07:20N 34°58' E 139°20'3 9.2
2017-Dec-16 07:00N 34°59' E 139°23'5 9.1
2017-Dec-16 06:29N 35°02' E 139°28'4 8.3
2017-Dec-16 05:59N 35°04' E 139°32'5 9.6
2017-Dec-16 05:30N 35°06' E 139°37'4 8.8
2017-Dec-16 05:00N 35°08' E 139°42'4 8.3
2017-Dec-16 04:30N 35°11' E 139°45'4 7.8
2017-Dec-16 04:01N 35°15' E 139°46'611.1
2017-Dec-16 03:30N 35°20' E 139°43'612.0
2017-Dec-16 03:00N 35°26' E 139°43'5 9.1
2017-Dec-16 02:31N 35°30' E 139°44'0 0.2
2017-Dec-16 01:59N 35°30' E 139°44'0 0.0
2017-Dec-16 01:20N 35°30' E 139°44'0 0.0
2017-Dec-16 00:59N 35°30' E 139°44'0 0.0
2017-Dec-16 00:26N 35°30' E 139°44'0 0.0
2017-Dec-15 23:56N 35°30' E 139°44'0 0.0
2017-Dec-15 23:29N 35°30' E 139°44'1 1.9
2017-Dec-15 23:00N 35°30' E 139°45'3 6.8
2017-Dec-15 22:30N 35°30' E 139°49'1 1.1
2017-Dec-15 21:59N 35°30' E 139°50'0 0.0
2017-Dec-15 21:29N 35°30' E 139°50'0 0.0
2017-Dec-15 20:59N 35°30' E 139°50'0 0.0
2017-Dec-15 20:29N 35°30' E 139°50'0 0.1
2017-Dec-15 19:59N 35°30' E 139°50'0 0.0
2017-Dec-15 19:29N 35°30' E 139°50'0 0.0
2017-Dec-15 18:59N 35°30' E 139°50'0 0.0
2017-Dec-15 18:29N 35°30' E 139°50'0 0.0
2017-Dec-15 17:59N 35°30' E 139°50'0 0.0
2017-Dec-15 17:29N 35°30' E 139°50'0 0.1
2017-Dec-15 16:59N 35°30' E 139°50'0 0.0
2017-Dec-15 16:29N 35°30' E 139°50'0 0.0
2017-Dec-15 15:56N 35°30' E 139°50'0 0.0
2017-Dec-15 15:29N 35°30' E 139°50'0 0.1
2017-Dec-15 14:59N 35°30' E 139°50'0 0.0
2017-Dec-15 14:20N 35°30' E 139°50'0 0.0
2017-Dec-15 13:59N 35°30' E 139°50'0 0.0
2017-Dec-15 13:29N 35°30' E 139°50'0 0.0
2017-Dec-15 12:59N 35°30' E 139°50'0 0.0
2017-Dec-15 12:29N 35°30' E 139°50'0 0.0
2017-Dec-15 11:59N 35°30' E 139°50'0 0.0
2017-Dec-15 11:29N 35°30' E 139°50'0 0.0
2017-Dec-15 10:59N 35°30' E 139°50'0 0.0
2017-Dec-15 10:29N 35°30' E 139°50'0 0.0
2017-Dec-15 09:59N 35°30' E 139°50'0 0.1
2017-Dec-15 09:29N 35°30' E 139°50'0 0.0
2017-Dec-15 08:59N 35°30' E 139°50'3 5.5
2017-Dec-15 08:30N 35°31' E 139°53'612.4
2017-Dec-15 07:59N 35°30' E 140°01'1 0.7
2017-Dec-15 05:58N 35°30' E 140°02'2 3.7
2017-Dec-15 05:30N 35°30' E 140°00'0 0.2
2017-Dec-15 04:59N 35°31' E 140°00'3 4.7
2017-Dec-15 04:26N 35°31' E 139°57'512.1
2017-Dec-15 04:00N 35°31' E 139°51'5 3.3
2017-Dec-15 02:23N 35°30' E 139°44'0 0.0
2017-Dec-15 00:59N 35°30' E 139°44'0 0.0
2017-Dec-15 00:23N 35°30' E 139°44'12 1.9
2017-Dec-14 18:04N 35°31' E 139°59'0 0.0
2017-Dec-14 17:49N 35°31' E 139°59'0 0.0
2017-Dec-14 17:28N 35°31' E 139°59'0 0.0
2017-Dec-14 16:55N 35°31' E 139°59'0 0.0
2017-Dec-14 16:16N 35°31' E 139°59'0 0.0
2017-Dec-14 15:58N 35°31' E 139°59'0 0.0
2017-Dec-14 14:58N 35°31' E 139°59'0 0.0
2017-Dec-14 14:28N 35°31' E 139°59'0 0.0
2017-Dec-14 12:49N 35°31' E 139°59'0 0.0
2017-Dec-14 12:10N 35°31' E 139°59'0 0.0
2017-Dec-14 08:31N 35°31' E 139°59'0 0.0
2017-Dec-14 08:28N 35°31' E 139°59'0 0.0
2017-Dec-14 07:58N 35°31' E 139°59'0 0.0
2017-Dec-14 00:22N 35°31' E 139°59'0 0.0
2017-Dec-13 15:43N 35°31' E 139°59'0 0.0
2017-Dec-13 15:25N 35°31' E 139°59'0 0.0
2017-Dec-13 14:52N 35°31' E 139°59'0 0.0
2017-Dec-13 14:25N 35°31' E 139°59'0 0.0
2017-Dec-13 13:43N 35°31' E 139°59'0 0.0
2017-Dec-13 13:13N 35°31' E 139°59'0 0.0
2017-Dec-13 12:19N 35°31' E 139°59'0 0.1
2017-Dec-13 11:58N 35°31' E 139°59'0 0.0
2017-Dec-13 11:28N 35°31' E 139°59'0 0.0
2017-Dec-13 10:55N 35°31' E 139°59'0 0.1
2017-Dec-13 10:19N 35°31' E 139°59'0 0.0
2017-Dec-13 08:55N 35°31' E 139°59'0 0.1
2017-Dec-13 08:19N 35°31' E 139°59'0 0.0
2017-Dec-13 05:58N 35°31' E 139°59'0 0.0
2017-Dec-13 05:25N 35°31' E 139°59'0 0.0
2017-Dec-13 04:46N 35°31' E 139°59'0 0.0
2017-Dec-13 04:28N 35°31' E 139°59'0 0.0
2017-Dec-13 03:49N 35°31' E 139°59'2 5.0
2017-Dec-13 03:30N 35°31' E 139°57'612.2
2017-Dec-13 03:00N 35°30' E 139°50'4 1.2
2017-Dec-13 00:00N 35°32' E 139°46'1 2.5
2017-Dec-12 23:31N 35°30' E 139°46'0 0.1
2017-Dec-12 22:49N 35°30' E 139°46'0 0.0
2017-Dec-12 22:28N 35°30' E 139°46'0 0.0
2017-Dec-12 21:55N 35°30' E 139°46'0 0.0
2017-Dec-12 21:28N 35°30' E 139°46'0 0.0
2017-Dec-12 20:55N 35°30' E 139°46'0 0.0
2017-Dec-12 20:22N 35°30' E 139°46'0 0.0
2017-Dec-12 19:58N 35°30' E 139°46'0 0.0
2017-Dec-12 19:25N 35°30' E 139°46'0 0.0
2017-Dec-12 18:58N 35°30' E 139°46'0 0.0
2017-Dec-12 18:16N 35°30' E 139°46'0 0.0
2017-Dec-12 17:58N 35°30' E 139°46'0 0.0
2017-Dec-12 17:22N 35°30' E 139°46'0 0.0
2017-Dec-12 16:40N 35°30' E 139°46'0 0.0
2017-Dec-12 15:55N 35°30' E 139°46'0 0.0
2017-Dec-12 15:19N 35°30' E 139°46'0 0.0
2017-Dec-12 14:46N 35°30' E 139°46'0 0.0
2017-Dec-12 14:22N 35°30' E 139°46'0 0.0
2017-Dec-12 13:52N 35°30' E 139°46'0 0.0
2017-Dec-12 13:13N 35°30' E 139°46'0 0.0
2017-Dec-12 12:49N 35°30' E 139°46'0 0.0
2017-Dec-12 11:40N 35°30' E 139°46'0 0.0
2017-Dec-12 11:22N 35°30' E 139°46'0 0.0
2017-Dec-12 10:58N 35°30' E 139°46'0 0.0
2017-Dec-12 08:19N 35°30' E 139°46'0 0.0
2017-Dec-12 06:13N 35°30' E 139°46'0 0.0
2017-Dec-12 05:58N 35°30' E 139°46'0 0.0
2017-Dec-12 04:52N 35°30' E 139°46'0 0.0
2017-Dec-12 04:22N 35°30' E 139°46'0 0.0
2017-Dec-12 03:58N 35°30' E 139°46'0 0.0
2017-Dec-12 03:28N 35°30' E 139°46'0 0.0
2017-Dec-12 02:58N 35°30' E 139°46'0 0.0
2017-Dec-12 02:28N 35°30' E 139°46'0 0.0
2017-Dec-12 00:28N 35°30' E 139°46'0 0.0
2017-Dec-11 23:37N 35°30' E 139°46'0 0.0
2017-Dec-11 23:28N 35°30' E 139°46'0 0.0
2017-Dec-11 20:16N 35°30' E 139°46'0 0.0
2017-Dec-11 18:34N 35°30' E 139°46'0 0.0
2017-Dec-11 18:07N 35°30' E 139°46'0 0.0
2017-Dec-11 17:46N 35°30' E 139°46'0 0.0
2017-Dec-11 17:22N 35°30' E 139°46'0 0.0
2017-Dec-11 16:55N 35°30' E 139°46'0 0.0
2017-Dec-11 15:28N 35°30' E 139°46'0 0.0
2017-Dec-11 14:52N 35°30' E 139°46'0 0.0
2017-Dec-11 12:58N 35°30' E 139°46'0 0.0
2017-Dec-11 06:52N 35°30' E 139°46'0 0.0
2017-Dec-11 06:25N 35°30' E 139°46'0 0.0
2017-Dec-11 02:49N 35°30' E 139°46'0 0.0
2017-Dec-11 02:22N 35°30' E 139°46'0 0.0
2017-Dec-11 01:49N 35°30' E 139°46'0 0.0
2017-Dec-11 01:22N 35°30' E 139°46'0 0.0
2017-Dec-10 23:29N 35°30' E 139°46'3 6.2
2017-Dec-10 23:00N 35°30' E 139°49'0 0.8
2017-Dec-10 22:24N 35°30' E 139°50'0 0.0
2017-Dec-10 22:00N 35°30' E 139°50'0 0.0
2017-Dec-10 21:27N 35°30' E 139°50'0 0.0
2017-Dec-10 21:00N 35°30' E 139°50'0 0.0
2017-Dec-10 19:57N 35°30' E 139°50'0 0.0
2017-Dec-10 19:18N 35°30' E 139°50'0 0.0
2017-Dec-10 18:57N 35°30' E 139°50'0 0.0
2017-Dec-10 18:30N 35°30' E 139°50'0 0.0
2017-Dec-10 17:54N 35°30' E 139°50'0 0.0
2017-Dec-10 17:24N 35°30' E 139°50'0 0.0
2017-Dec-10 17:00N 35°30' E 139°50'0 0.0
2017-Dec-10 16:06N 35°30' E 139°50'0 0.1
2017-Dec-10 16:00N 35°30' E 139°50'0 0.0
2017-Dec-10 15:30N 35°30' E 139°50'0 0.0
2017-Dec-10 15:00N 35°30' E 139°50'0 0.0
2017-Dec-10 14:27N 35°30' E 139°50'0 0.0
2017-Dec-10 13:54N 35°30' E 139°50'0 0.0
2017-Dec-10 13:27N 35°30' E 139°50'0 0.0
2017-Dec-10 13:00N 35°30' E 139°50'0 0.0
2017-Dec-10 12:21N 35°30' E 139°50'0 0.0
2017-Dec-10 11:57N 35°30' E 139°50'0 0.0
2017-Dec-10 11:30N 35°30' E 139°50'0 0.0
2017-Dec-10 10:51N 35°30' E 139°50'0 0.0
2017-Dec-10 10:21N 35°30' E 139°50'0 0.0
2017-Dec-10 09:57N 35°30' E 139°50'0 0.0
2017-Dec-10 09:27N 35°30' E 139°50'0 0.0
2017-Dec-10 09:00N 35°30' E 139°50'0 0.0
2017-Dec-10 08:27N 35°30' E 139°50'0 0.0
2017-Dec-10 08:00N 35°30' E 139°50'0 0.0
2017-Dec-10 07:30N 35°30' E 139°50'0 0.0
2017-Dec-10 06:57N 35°30' E 139°50'0 0.0
2017-Dec-10 06:00N 35°30' E 139°50'0 0.0
2017-Dec-10 05:30N 35°30' E 139°50'0 0.0
2017-Dec-10 05:00N 35°30' E 139°50'0 0.2
2017-Dec-10 04:30N 35°30' E 139°50'0 0.0
2017-Dec-10 03:57N 35°30' E 139°50'0 0.0
2017-Dec-10 03:30N 35°30' E 139°50'0 0.0
2017-Dec-10 03:00N 35°30' E 139°50'0 0.0
2017-Dec-10 02:24N 35°30' E 139°50'0 0.0
2017-Dec-10 02:00N 35°30' E 139°50'0 0.0
2017-Dec-10 01:21N 35°30' E 139°50'0 0.0
2017-Dec-10 00:57N 35°30' E 139°50'0 0.0
2017-Dec-10 00:27N 35°30' E 139°50'0 0.0
2017-Dec-09 23:57N 35°30' E 139°50'0 0.0
2017-Dec-09 23:30N 35°30' E 139°50'0 0.0
2017-Dec-09 23:00N 35°30' E 139°50'0 0.1
2017-Dec-09 22:30N 35°30' E 139°50'0 0.0
2017-Dec-09 21:57N 35°30' E 139°50'0 0.1
2017-Dec-09 21:27N 35°30' E 139°50'0 0.0
2017-Dec-09 21:00N 35°30' E 139°50'0 0.0
2017-Dec-09 20:30N 35°30' E 139°50'0 0.0
2017-Dec-09 20:00N 35°30' E 139°50'0 0.0
2017-Dec-09 19:27N 35°30' E 139°50'0 0.0
2017-Dec-09 19:00N 35°30' E 139°50'0 0.0
2017-Dec-09 18:30N 35°30' E 139°50'0 0.0
2017-Dec-09 17:51N 35°30' E 139°50'0 0.0
2017-Dec-09 17:27N 35°30' E 139°50'0 0.0
2017-Dec-09 16:57N 35°30' E 139°50'0 0.0
2017-Dec-09 16:30N 35°30' E 139°50'0 0.0
2017-Dec-09 16:00N 35°30' E 139°50'0 0.0
2017-Dec-09 15:30N 35°30' E 139°50'0 0.0
2017-Dec-09 14:57N 35°30' E 139°50'0 0.0
2017-Dec-09 14:27N 35°30' E 139°50'0 0.1
2017-Dec-09 13:54N 35°30' E 139°50'0 0.1
2017-Dec-09 13:18N 35°30' E 139°50'0 0.0
2017-Dec-09 12:03N 35°30' E 139°50'0 0.0
2017-Dec-09 11:54N 35°30' E 139°50'0 0.0
2017-Dec-09 11:30N 35°30' E 139°50'0 0.0
2017-Dec-09 11:00N 35°30' E 139°50'0 0.0
2017-Dec-09 10:30N 35°30' E 139°50'0 0.0
2017-Dec-09 10:00N 35°30' E 139°50'0 0.0
2017-Dec-09 09:27N 35°30' E 139°50'0 0.0
2017-Dec-09 08:51N 35°30' E 139°50'0 0.1
2017-Dec-09 08:30N 35°30' E 139°50'0 0.1
2017-Dec-09 07:51N 35°30' E 139°50'0 0.0
2017-Dec-09 07:30N 35°30' E 139°50'0 0.0
2017-Dec-09 07:00N 35°30' E 139°50'0 0.0
2017-Dec-09 06:27N 35°30' E 139°50'0 0.0
2017-Dec-09 05:51N 35°30' E 139°50'0 0.0
2017-Dec-09 05:21N 35°30' E 139°50'0 0.0
2017-Dec-09 04:57N 35°30' E 139°50'0 0.0
2017-Dec-09 04:27N 35°30' E 139°50'0 0.0
2017-Dec-09 04:00N 35°30' E 139°50'0 0.0
2017-Dec-09 03:30N 35°30' E 139°50'0 0.1
2017-Dec-09 02:57N 35°30' E 139°50'0 0.0
2017-Dec-09 02:30N 35°30' E 139°50'0 0.0
2017-Dec-09 02:00N 35°30' E 139°50'0 0.0
2017-Dec-09 01:30N 35°30' E 139°50'3 5.7
2017-Dec-09 01:00N 35°27' E 139°48'611.9
2017-Dec-09 00:30N 35°22' E 139°45'510.9
2017-Dec-09 00:00N 35°16' E 139°46'611.7
2017-Dec-08 23:30N 35°11' E 139°47'612.0
2017-Dec-08 23:00N 35°05' E 139°44'612.4
2017-Dec-08 22:30N 35°01' E 139°38'713.1
2017-Dec-08 21:59N 34°57' E 139°32'713.7
2017-Dec-08 21:30N 34°52' E 139°25'713.9
2017-Dec-08 21:00N 34°49' E 139°18'713.1
2017-Dec-08 20:30N 34°45' E 139°12'612.7
2017-Dec-08 20:00N 34°41' E 139°06'612.4
2017-Dec-08 19:30N 34°37' E 138°60'713.5
2017-Dec-08 19:00N 34°34' E 138°52'1113.3
2017-Dec-08 18:10N 34°32' E 138°39'213.0
2017-Dec-08 18:00N 34°32' E 138°37'18210.9
2017-Dec-08 01:26N 33°48' E 135°04'512.3
2017-Dec-08 01:00N 33°51' E 134°59'1612.4
2017-Dec-07 23:42N 33°60' E 134°42'6 0.3
2017-Dec-07 06:54N 34°01' E 134°36'  
Track history (hours):
 
Tides and Currents Weather Stations Pressure Air Temp Water Temp Dewpoint Dewpoint Depression Visibility Wind Speed Wind Dir Waves Ship Positions

Aimaru

Last reported at 2017-Dec-17 06:38 UTC. Time now 2017-Dec-17 12:11 UTC.
Position N 34°37' E 136°55'.

Length 65 m; draft 3.6 m.

Type: Tanker. MMSI: 431007966.

Date/timePositionNaut miles runAvg speedWind from/ knotsBaromVisibWave heightAir tempDewpointWater temp
2017-Dec-17 06:38N 34°37' E 136°55'211.8
2017-Dec-17 06:30N 34°38' E 136°53'611.9
2017-Dec-17 06:00N 34°42' E 136°49'612.2
2017-Dec-17 05:30N 34°48' E 136°46'612.3
2017-Dec-17 05:00N 34°54' E 136°46'611.1
2017-Dec-17 04:30N 34°59' E 136°49'5 9.9
2017-Dec-17 04:00N 35°03' E 136°52'1 0.9
2017-Dec-17 03:25N 35°04' E 136°52'0 0.0
2017-Dec-17 02:58N 35°04' E 136°52'0 0.0
2017-Dec-17 02:28N 35°04' E 136°52'0 0.0
2017-Dec-17 01:58N 35°04' E 136°52'1 1.3
2017-Dec-17 01:30N 35°05' E 136°52'0 0.5
2017-Dec-17 00:58N 35°05' E 136°52'0 0.0
2017-Dec-17 00:28N 35°05' E 136°52'0 0.0
2017-Dec-16 23:58N 35°05' E 136°52'4 7.9
2017-Dec-16 23:30N 35°01' E 136°51'611.8
2017-Dec-16 23:00N 34°56' E 136°47'611.4
2017-Dec-16 22:30N 34°51' E 136°47'610.9
2017-Dec-16 22:00N 34°45' E 136°48'22 8.8
2017-Dec-16 19:26N 34°33' E 137°12'60 9.7
2017-Dec-16 13:16N 34°36' E 138°25'310.2
2017-Dec-16 13:00N 34°36' E 138°28'5 9.4
2017-Dec-16 12:27N 34°37' E 138°34'4 9.2
2017-Dec-16 11:59N 34°36' E 138°39'5 8.3
2017-Dec-16 11:24N 34°36' E 138°45'3 7.9
2017-Dec-16 11:00N 34°35' E 138°49'4 7.4
2017-Dec-16 10:24N 34°35' E 138°54'4 8.0
2017-Dec-16 09:52N 34°38' E 138°59'4 9.7
2017-Dec-16 09:29N 34°40' E 139°02'2310.6
2017-Dec-16 07:20N 34°58' E 139°20'3 9.2
2017-Dec-16 07:00N 34°59' E 139°23'5 9.1
2017-Dec-16 06:29N 35°02' E 139°28'4 8.3
2017-Dec-16 05:59N 35°04' E 139°32'5 9.6
2017-Dec-16 05:30N 35°06' E 139°37'4 8.8
2017-Dec-16 05:00N 35°08' E 139°42'4 8.3
2017-Dec-16 04:30N 35°11' E 139°45'4 7.8
2017-Dec-16 04:01N 35°15' E 139°46'611.1
2017-Dec-16 03:30N 35°20' E 139°43'612.0
2017-Dec-16 03:00N 35°26' E 139°43'5 9.1
2017-Dec-16 02:31N 35°30' E 139°44'0 0.2
2017-Dec-16 01:59N 35°30' E 139°44'0 0.0
2017-Dec-16 01:20N 35°30' E 139°44'0 0.0
2017-Dec-16 00:59N 35°30' E 139°44'0 0.0
2017-Dec-16 00:26N 35°30' E 139°44'0 0.0
2017-Dec-15 23:56N 35°30' E 139°44'0 0.0
2017-Dec-15 23:29N 35°30' E 139°44'1 1.9
2017-Dec-15 23:00N 35°30' E 139°45'3 6.8
2017-Dec-15 22:30N 35°30' E 139°49'1 1.1
2017-Dec-15 21:59N 35°30' E 139°50'0 0.0
2017-Dec-15 21:29N 35°30' E 139°50'0 0.0
2017-Dec-15 20:59N 35°30' E 139°50'0 0.0
2017-Dec-15 20:29N 35°30' E 139°50'0 0.1
2017-Dec-15 19:59N 35°30' E 139°50'0 0.0
2017-Dec-15 19:29N 35°30' E 139°50'0 0.0
2017-Dec-15 18:59N 35°30' E 139°50'0 0.0
2017-Dec-15 18:29N 35°30' E 139°50'0 0.0
2017-Dec-15 17:59N 35°30' E 139°50'0 0.0
2017-Dec-15 17:29N 35°30' E 139°50'0 0.1
2017-Dec-15 16:59N 35°30' E 139°50'0 0.0
2017-Dec-15 16:29N 35°30' E 139°50'0 0.0
2017-Dec-15 15:56N 35°30' E 139°50'0 0.0
2017-Dec-15 15:29N 35°30' E 139°50'0 0.1
2017-Dec-15 14:59N 35°30' E 139°50'0 0.0
2017-Dec-15 14:20N 35°30' E 139°50'0 0.0
2017-Dec-15 13:59N 35°30' E 139°50'0 0.0
2017-Dec-15 13:29N 35°30' E 139°50'0 0.0
2017-Dec-15 12:59N 35°30' E 139°50'0 0.0
2017-Dec-15 12:29N 35°30' E 139°50'0 0.0
2017-Dec-15 11:59N 35°30' E 139°50'0 0.0
2017-Dec-15 11:29N 35°30' E 139°50'0 0.0
2017-Dec-15 10:59N 35°30' E 139°50'0 0.0
2017-Dec-15 10:29N 35°30' E 139°50'0 0.0
2017-Dec-15 09:59N 35°30' E 139°50'0 0.1
2017-Dec-15 09:29N 35°30' E 139°50'0 0.0
2017-Dec-15 08:59N 35°30' E 139°50'3 5.5
2017-Dec-15 08:30N 35°31' E 139°53'612.4
2017-Dec-15 07:59N 35°30' E 140°01'1 0.7
2017-Dec-15 05:58N 35°30' E 140°02'2 3.7
2017-Dec-15 05:30N 35°30' E 140°00'0 0.2
2017-Dec-15 04:59N 35°31' E 140°00'3 4.7
2017-Dec-15 04:26N 35°31' E 139°57'512.1
2017-Dec-15 04:00N 35°31' E 139°51'5 3.3
2017-Dec-15 02:23N 35°30' E 139°44'0 0.0
2017-Dec-15 00:59N 35°30' E 139°44'0 0.0
2017-Dec-15 00:23N 35°30' E 139°44'12 1.9
2017-Dec-14 18:04N 35°31' E 139°59'0 0.0
2017-Dec-14 17:49N 35°31' E 139°59'0 0.0
2017-Dec-14 17:28N 35°31' E 139°59'0 0.0
2017-Dec-14 16:55N 35°31' E 139°59'0 0.0
2017-Dec-14 16:16N 35°31' E 139°59'0 0.0
2017-Dec-14 15:58N 35°31' E 139°59'0 0.0
2017-Dec-14 14:58N 35°31' E 139°59'0 0.0
2017-Dec-14 14:28N 35°31' E 139°59'0 0.0
2017-Dec-14 12:49N 35°31' E 139°59'0 0.0
2017-Dec-14 12:10N 35°31' E 139°59'0 0.0
2017-Dec-14 08:31N 35°31' E 139°59'0 0.0
2017-Dec-14 08:28N 35°31' E 139°59'0 0.0
2017-Dec-14 07:58N 35°31' E 139°59'0 0.0
2017-Dec-14 00:22N 35°31' E 139°59'0 0.0
2017-Dec-13 15:43N 35°31' E 139°59'0 0.0
2017-Dec-13 15:25N 35°31' E 139°59'0 0.0
2017-Dec-13 14:52N 35°31' E 139°59'0 0.0
2017-Dec-13 14:25N 35°31' E 139°59'0 0.0
2017-Dec-13 13:43N 35°31' E 139°59'0 0.0
2017-Dec-13 13:13N 35°31' E 139°59'0 0.0
2017-Dec-13 12:19N 35°31' E 139°59'0 0.1
2017-Dec-13 11:58N 35°31' E 139°59'0 0.0
2017-Dec-13 11:28N 35°31' E 139°59'0 0.0
2017-Dec-13 10:55N 35°31' E 139°59'0 0.1
2017-Dec-13 10:19N 35°31' E 139°59'0 0.0
2017-Dec-13 08:55N 35°31' E 139°59'0 0.1
2017-Dec-13 08:19N 35°31' E 139°59'0 0.0
2017-Dec-13 05:58N 35°31' E 139°59'0 0.0
2017-Dec-13 05:25N 35°31' E 139°59'0 0.0
2017-Dec-13 04:46N 35°31' E 139°59'0 0.0
2017-Dec-13 04:28N 35°31' E 139°59'0 0.0
2017-Dec-13 03:49N 35°31' E 139°59'2 5.0
2017-Dec-13 03:30N 35°31' E 139°57'612.2
2017-Dec-13 03:00N 35°30' E 139°50'4 1.2
2017-Dec-13 00:00N 35°32' E 139°46'1 2.5
2017-Dec-12 23:31N 35°30' E 139°46'0 0.1
2017-Dec-12 22:49N 35°30' E 139°46'0 0.0
2017-Dec-12 22:28N 35°30' E 139°46'0 0.0
2017-Dec-12 21:55N 35°30' E 139°46'0 0.0
2017-Dec-12 21:28N 35°30' E 139°46'0 0.0
2017-Dec-12 20:55N 35°30' E 139°46'0 0.0
2017-Dec-12 20:22N 35°30' E 139°46'0 0.0
2017-Dec-12 19:58N 35°30' E 139°46'0 0.0
2017-Dec-12 19:25N 35°30' E 139°46'0 0.0
2017-Dec-12 18:58N 35°30' E 139°46'0 0.0
2017-Dec-12 18:16N 35°30' E 139°46'0 0.0
2017-Dec-12 17:58N 35°30' E 139°46'0 0.0
2017-Dec-12 17:22N 35°30' E 139°46'0 0.0
2017-Dec-12 16:40N 35°30' E 139°46'0 0.0
2017-Dec-12 15:55N 35°30' E 139°46'0 0.0
2017-Dec-12 15:19N 35°30' E 139°46'0 0.0
2017-Dec-12 14:46N 35°30' E 139°46'0 0.0
2017-Dec-12 14:22N 35°30' E 139°46'0 0.0
2017-Dec-12 13:52N 35°30' E 139°46'0 0.0
2017-Dec-12 13:13N 35°30' E 139°46'0 0.0
2017-Dec-12 12:49N 35°30' E 139°46'0 0.0
2017-Dec-12 11:40N 35°30' E 139°46'0 0.0
2017-Dec-12 11:22N 35°30' E 139°46'0 0.0
2017-Dec-12 10:58N 35°30' E 139°46'0 0.0
2017-Dec-12 08:19N 35°30' E 139°46'0 0.0
2017-Dec-12 06:13N 35°30' E 139°46'0 0.0
2017-Dec-12 05:58N 35°30' E 139°46'0 0.0
2017-Dec-12 04:52N 35°30' E 139°46'0 0.0
2017-Dec-12 04:22N 35°30' E 139°46'0 0.0
2017-Dec-12 03:58N 35°30' E 139°46'0 0.0
2017-Dec-12 03:28N 35°30' E 139°46'0 0.0
2017-Dec-12 02:58N 35°30' E 139°46'0 0.0
2017-Dec-12 02:28N 35°30' E 139°46'0 0.0
2017-Dec-12 00:28N 35°30' E 139°46'0 0.0
2017-Dec-11 23:37N 35°30' E 139°46'0 0.0
2017-Dec-11 23:28N 35°30' E 139°46'0 0.0
2017-Dec-11 20:16N 35°30' E 139°46'0 0.0
2017-Dec-11 18:34N 35°30' E 139°46'0 0.0
2017-Dec-11 18:07N 35°30' E 139°46'0 0.0
2017-Dec-11 17:46N 35°30' E 139°46'0 0.0
2017-Dec-11 17:22N 35°30' E 139°46'0 0.0
2017-Dec-11 16:55N 35°30' E 139°46'0 0.0
2017-Dec-11 15:28N 35°30' E 139°46'0 0.0
2017-Dec-11 14:52N 35°30' E 139°46'0 0.0
2017-Dec-11 12:58N 35°30' E 139°46'0 0.0
2017-Dec-11 06:52N 35°30' E 139°46'0 0.0
2017-Dec-11 06:25N 35°30' E 139°46'0 0.0
2017-Dec-11 02:49N 35°30' E 139°46'0 0.0
2017-Dec-11 02:22N 35°30' E 139°46'0 0.0
2017-Dec-11 01:49N 35°30' E 139°46'0 0.0
2017-Dec-11 01:22N 35°30' E 139°46'0 0.0
2017-Dec-10 23:29N 35°30' E 139°46'3 6.2
2017-Dec-10 23:00N 35°30' E 139°49'0 0.8
2017-Dec-10 22:24N 35°30' E 139°50'0 0.0
2017-Dec-10 22:00N 35°30' E 139°50'0 0.0
2017-Dec-10 21:27N 35°30' E 139°50'0 0.0
2017-Dec-10 21:00N 35°30' E 139°50'0 0.0
2017-Dec-10 19:57N 35°30' E 139°50'0 0.0
2017-Dec-10 19:18N 35°30' E 139°50'0 0.0
2017-Dec-10 18:57N 35°30' E 139°50'0 0.0
2017-Dec-10 18:30N 35°30' E 139°50'0 0.0
2017-Dec-10 17:54N 35°30' E 139°50'0 0.0
2017-Dec-10 17:24N 35°30' E 139°50'0 0.0
2017-Dec-10 17:00N 35°30' E 139°50'0 0.0
2017-Dec-10 16:06N 35°30' E 139°50'0 0.1
2017-Dec-10 16:00N 35°30' E 139°50'0 0.0
2017-Dec-10 15:30N 35°30' E 139°50'0 0.0
2017-Dec-10 15:00N 35°30' E 139°50'0 0.0
2017-Dec-10 14:27N 35°30' E 139°50'0 0.0
2017-Dec-10 13:54N 35°30' E 139°50'0 0.0
2017-Dec-10 13:27N 35°30' E 139°50'0 0.0
2017-Dec-10 13:00N 35°30' E 139°50'0 0.0
2017-Dec-10 12:21N 35°30' E 139°50'0 0.0
2017-Dec-10 11:57N 35°30' E 139°50'0 0.0
2017-Dec-10 11:30N 35°30' E 139°50'0 0.0
2017-Dec-10 10:51N 35°30' E 139°50'0 0.0
2017-Dec-10 10:21N 35°30' E 139°50'0 0.0
2017-Dec-10 09:57N 35°30' E 139°50'0 0.0
2017-Dec-10 09:27N 35°30' E 139°50'0 0.0
2017-Dec-10 09:00N 35°30' E 139°50'0 0.0
2017-Dec-10 08:27N 35°30' E 139°50'0 0.0
2017-Dec-10 08:00N 35°30' E 139°50'0 0.0
2017-Dec-10 07:30N 35°30' E 139°50'0 0.0
2017-Dec-10 06:57N 35°30' E 139°50'0 0.0
2017-Dec-10 06:00N 35°30' E 139°50'0 0.0
2017-Dec-10 05:30N 35°30' E 139°50'0 0.0
2017-Dec-10 05:00N 35°30' E 139°50'0 0.2
2017-Dec-10 04:30N 35°30' E 139°50'0 0.0
2017-Dec-10 03:57N 35°30' E 139°50'0 0.0
2017-Dec-10 03:30N 35°30' E 139°50'0 0.0
2017-Dec-10 03:00N 35°30' E 139°50'0 0.0
2017-Dec-10 02:24N 35°30' E 139°50'0 0.0
2017-Dec-10 02:00N 35°30' E 139°50'0 0.0
2017-Dec-10 01:21N 35°30' E 139°50'0 0.0
2017-Dec-10 00:57N 35°30' E 139°50'0 0.0
2017-Dec-10 00:27N 35°30' E 139°50'0 0.0
2017-Dec-09 23:57N 35°30' E 139°50'0 0.0
2017-Dec-09 23:30N 35°30' E 139°50'0 0.0
2017-Dec-09 23:00N 35°30' E 139°50'0 0.1
2017-Dec-09 22:30N 35°30' E 139°50'0 0.0
2017-Dec-09 21:57N 35°30' E 139°50'0 0.1
2017-Dec-09 21:27N 35°30' E 139°50'0 0.0
2017-Dec-09 21:00N 35°30' E 139°50'0 0.0
2017-Dec-09 20:30N 35°30' E 139°50'0 0.0
2017-Dec-09 20:00N 35°30' E 139°50'0 0.0
2017-Dec-09 19:27N 35°30' E 139°50'0 0.0
2017-Dec-09 19:00N 35°30' E 139°50'0 0.0
2017-Dec-09 18:30N 35°30' E 139°50'0 0.0
2017-Dec-09 17:51N 35°30' E 139°50'0 0.0
2017-Dec-09 17:27N 35°30' E 139°50'0 0.0
2017-Dec-09 16:57N 35°30' E 139°50'0 0.0
2017-Dec-09 16:30N 35°30' E 139°50'0 0.0
2017-Dec-09 16:00N 35°30' E 139°50'0 0.0
2017-Dec-09 15:30N 35°30' E 139°50'0 0.0
2017-Dec-09 14:57N 35°30' E 139°50'0 0.0
2017-Dec-09 14:27N 35°30' E 139°50'0 0.1
2017-Dec-09 13:54N 35°30' E 139°50'0 0.1
2017-Dec-09 13:18N 35°30' E 139°50'0 0.0
2017-Dec-09 12:03N 35°30' E 139°50'0 0.0
2017-Dec-09 11:54N 35°30' E 139°50'0 0.0
2017-Dec-09 11:30N 35°30' E 139°50'0 0.0
2017-Dec-09 11:00N 35°30' E 139°50'0 0.0
2017-Dec-09 10:30N 35°30' E 139°50'0 0.0
2017-Dec-09 10:00N 35°30' E 139°50'0 0.0
2017-Dec-09 09:27N 35°30' E 139°50'0 0.0
2017-Dec-09 08:51N 35°30' E 139°50'0 0.1
2017-Dec-09 08:30N 35°30' E 139°50'0 0.1
2017-Dec-09 07:51N 35°30' E 139°50'0 0.0
2017-Dec-09 07:30N 35°30' E 139°50'0 0.0
2017-Dec-09 07:00N 35°30' E 139°50'0 0.0
2017-Dec-09 06:27N 35°30' E 139°50'0 0.0
2017-Dec-09 05:51N 35°30' E 139°50'0 0.0
2017-Dec-09 05:21N 35°30' E 139°50'0 0.0
2017-Dec-09 04:57N 35°30' E 139°50'0 0.0
2017-Dec-09 04:27N 35°30' E 139°50'0 0.0
2017-Dec-09 04:00N 35°30' E 139°50'0 0.0
2017-Dec-09 03:30N 35°30' E 139°50'0 0.1
2017-Dec-09 02:57N 35°30' E 139°50'0 0.0
2017-Dec-09 02:30N 35°30' E 139°50'0 0.0
2017-Dec-09 02:00N 35°30' E 139°50'0 0.0
2017-Dec-09 01:30N 35°30' E 139°50'3 5.7
2017-Dec-09 01:00N 35°27' E 139°48'611.9
2017-Dec-09 00:30N 35°22' E 139°45'510.9
2017-Dec-09 00:00N 35°16' E 139°46'611.7
2017-Dec-08 23:30N 35°11' E 139°47'612.0
2017-Dec-08 23:00N 35°05' E 139°44'612.4
2017-Dec-08 22:30N 35°01' E 139°38'713.1
2017-Dec-08 21:59N 34°57' E 139°32'713.7
2017-Dec-08 21:30N 34°52' E 139°25'713.9
2017-Dec-08 21:00N 34°49' E 139°18'713.1
2017-Dec-08 20:30N 34°45' E 139°12'612.7
2017-Dec-08 20:00N 34°41' E 139°06'612.4
2017-Dec-08 19:30N 34°37' E 138°60'713.5
2017-Dec-08 19:00N 34°34' E 138°52'1113.3
2017-Dec-08 18:10N 34°32' E 138°39'213.0
2017-Dec-08 18:00N 34°32' E 138°37'18210.9
2017-Dec-08 01:26N 33°48' E 135°04'512.3
2017-Dec-08 01:00N 33°51' E 134°59'1612.4
2017-Dec-07 23:42N 33°60' E 134°42'6 0.3
2017-Dec-07 06:54N 34°01' E 134°36'  

Dump ship's entire track history